createdAt,value
2022-08-20T00:01:21.026Z,18.67
2022-08-20T00:06:29.752Z,19.40
2022-08-20T00:11:36.570Z,20.45
2022-08-20T00:16:43.954Z,22.52
2022-08-20T00:21:50.957Z,21.00
2022-08-20T00:27:09.573Z,19.67
2022-08-20T00:32:15.733Z,18.58
2022-08-20T00:37:25.268Z,19.73
2022-08-20T00:42:33.901Z,20.67
2022-08-20T00:47:41.437Z,20.35
2022-08-20T00:58:35.163Z,17.33
2022-08-20T01:03:47.443Z,18.30
2022-08-20T01:09:07.255Z,18.45
2022-08-20T01:14:32.650Z,19.10
2022-08-20T01:19:45.477Z,18.50
2022-08-20T01:24:57.669Z,16.92
2022-08-20T01:30:14.023Z,16.70
2022-08-20T01:35:26.078Z,17.55
2022-08-20T01:40:46.758Z,17.15
2022-08-20T01:46:01.939Z,20.50
2022-08-20T01:51:19.452Z,17.73
2022-08-20T01:56:31.592Z,17.85
2022-08-20T02:02:03.383Z,19.65
2022-08-20T02:07:09.949Z,19.25
2022-08-20T02:12:19.461Z,20.13
2022-08-20T02:17:29.348Z,18.25
2022-08-20T02:22:49.823Z,19.92
2022-08-20T02:27:58.092Z,18.75
2022-08-20T02:33:06.849Z,18.45
2022-08-20T02:38:13.731Z,19.90
2022-08-20T02:43:28.511Z,19.67
2022-08-20T02:48:35.074Z,18.33
2022-08-20T02:53:45.696Z,19.17
2022-08-20T02:58:52.064Z,19.40
2022-08-20T03:04:11.076Z,18.67
2022-08-20T03:09:20.396Z,16.60
2022-08-20T03:14:26.599Z,19.98
2022-08-20T03:19:37.132Z,20.67
2022-08-20T03:24:43.224Z,19.33
2022-08-20T03:29:52.835Z,17.75
2022-08-20T03:35:03.093Z,20.80
2022-08-20T03:40:11.454Z,21.45
2022-08-20T03:45:20.227Z,18.75
2022-08-20T03:50:31.639Z,19.90
2022-08-20T03:55:54.001Z,19.52
2022-08-20T04:01:00.732Z,21.05
2022-08-20T04:06:07.781Z,21.85
2022-08-20T04:11:17.804Z,20.25
2022-08-20T04:16:23.749Z,20.02
2022-08-20T04:21:40.364Z,20.35
2022-08-20T04:26:57.826Z,22.38
2022-08-20T04:32:17.920Z,21.42
2022-08-20T04:37:32.253Z,21.33
2022-08-20T04:42:57.727Z,20.75
2022-08-20T04:48:07.107Z,25.20
2022-08-20T04:53:31.370Z,21.00
2022-08-20T04:58:50.064Z,21.17
2022-08-20T05:03:59.894Z,20.70
2022-08-20T05:09:10.281Z,23.13
2022-08-20T05:14:18.505Z,21.85
2022-08-20T05:19:39.025Z,20.75
2022-08-20T05:25:06.500Z,20.42
2022-08-20T05:30:16.797Z,22.17
2022-08-20T05:35:26.369Z,23.30
2022-08-20T05:40:42.449Z,21.15
2022-08-20T05:45:56.881Z,22.60
2022-08-20T05:51:01.472Z,20.20
2022-08-20T05:56:11.769Z,20.17
2022-08-20T06:01:16.960Z,21.25
2022-08-20T06:06:44.345Z,19.63
2022-08-20T06:11:53.655Z,21.42
2022-08-20T06:17:08.351Z,20.27
2022-08-20T06:22:27.755Z,18.05
2022-08-20T06:27:38.142Z,17.73
2022-08-20T06:32:45.168Z,18.77
2022-08-20T06:37:49.460Z,16.58
2022-08-20T06:43:02.006Z,17.08
2022-08-20T06:48:15.208Z,17.02
2022-08-20T06:53:37.277Z,16.35
2022-08-20T06:58:59.222Z,15.48
2022-08-20T07:04:11.558Z,16.58
2022-08-20T07:09:16.489Z,16.75
2022-08-20T07:14:43.951Z,18.70
2022-08-20T07:20:00.036Z,20.73
2022-08-20T07:25:11.847Z,19.58
2022-08-20T07:30:55.850Z,20.17
2022-08-20T07:36:07.583Z,18.30
2022-08-20T07:41:15.054Z,17.35
2022-08-20T07:46:24.421Z,18.20
2022-08-20T07:51:44.442Z,18.73
2022-08-20T07:56:49.687Z,19.80
2022-08-20T08:01:58.951Z,18.70
2022-08-20T08:07:03.480Z,18.80
2022-08-20T08:12:11.162Z,18.58
2022-08-20T08:17:21.854Z,18.50
2022-08-20T08:22:27.971Z,17.85
2022-08-20T08:27:35.983Z,15.68
2022-08-20T08:33:04.237Z,16.98
2022-08-20T08:38:09.225Z,15.63
2022-08-20T08:43:21.220Z,17.27
2022-08-20T08:48:35.475Z,16.35
2022-08-20T08:53:48.965Z,14.55
2022-08-20T08:58:55.818Z,14.13
2022-08-20T09:04:05.269Z,16.30
2022-08-20T09:09:29.492Z,16.88
2022-08-20T09:14:34.282Z,15.77
2022-08-20T09:19:52.707Z,16.00
2022-08-20T09:24:57.652Z,16.40
2022-08-20T09:30:06.467Z,17.15
2022-08-20T09:35:14.346Z,17.23
2022-08-20T09:40:21.363Z,17.80
2022-08-20T09:45:33.284Z,16.83
2022-08-20T09:50:49.882Z,16.70
2022-08-20T09:56:09.218Z,15.38
2022-08-20T10:01:27.369Z,16.95
2022-08-20T10:06:37.729Z,15.77
2022-08-20T10:11:46.481Z,18.05
2022-08-20T10:17:06.273Z,16.67
2022-08-20T10:22:21.505Z,17.85
2022-08-20T10:27:26.591Z,16.45
2022-08-20T10:32:34.928Z,16.98
2022-08-20T10:38:09.276Z,18.48
2022-08-20T10:43:30.242Z,18.50
2022-08-20T10:48:40.951Z,18.50
2022-08-20T10:53:50.678Z,18.95
2022-08-20T10:59:01.220Z,19.55
2022-08-20T11:04:15.807Z,20.73
2022-08-20T11:09:31.972Z,21.35
2022-08-20T11:14:38.687Z,23.00
2022-08-20T11:19:47.236Z,25.35
2022-08-20T11:24:56.244Z,23.85
2022-08-20T11:30:06.558Z,25.55
2022-08-20T11:35:41.065Z,25.65
2022-08-20T11:40:47.249Z,22.48
2022-08-20T11:46:01.745Z,24.58
2022-08-20T11:51:17.052Z,26.20
2022-08-20T11:56:48.274Z,22.45
2022-08-20T12:02:12.536Z,23.85
2022-08-20T12:07:24.435Z,24.25
2022-08-20T12:12:39.584Z,24.45
2022-08-20T12:17:52.946Z,22.73
2022-08-20T12:28:25.891Z,24.73
2022-08-20T12:33:49.887Z,23.98
2022-08-20T12:39:08.784Z,23.58
2022-08-20T12:44:15.818Z,22.48
2022-08-20T12:49:20.821Z,21.23
2022-08-20T12:54:32.700Z,23.05
2022-08-20T12:59:41.484Z,22.13
2022-08-20T13:04:52.546Z,24.55
2022-08-20T13:10:01.849Z,19.45
2022-08-20T13:15:18.478Z,22.55
2022-08-20T13:20:55.007Z,22.67
2022-08-20T13:26:04.224Z,21.73
2022-08-20T13:31:30.334Z,20.17
2022-08-20T13:36:37.515Z,20.75
2022-08-20T13:41:44.854Z,20.02
2022-08-20T13:47:03.526Z,19.98
2022-08-20T13:52:16.991Z,19.13
2022-08-20T13:57:27.756Z,17.40
2022-08-20T14:02:48.102Z,18.90
2022-08-20T14:07:52.612Z,19.45
2022-08-20T14:12:59.675Z,20.10
2022-08-20T14:18:16.260Z,20.00
2022-08-20T14:23:21.102Z,20.70
2022-08-20T14:28:33.682Z,21.02
2022-08-20T14:33:44.892Z,18.95
2022-08-20T14:38:55.908Z,19.58
2022-08-20T14:44:08.201Z,19.23
2022-08-20T14:49:16.921Z,17.02
2022-08-20T14:54:21.058Z,18.00
2022-08-20T14:59:28.206Z,16.67
2022-08-20T15:04:34.329Z,18.17
2022-08-20T15:09:41.376Z,18.67
2022-08-20T15:14:49.646Z,19.48
2022-08-20T15:19:59.621Z,18.52
2022-08-20T15:25:07.081Z,17.23
2022-08-20T15:30:15.153Z,19.70
2022-08-20T15:35:25.656Z,19.27
2022-08-20T15:40:35.095Z,16.00
2022-08-20T15:45:49.117Z,17.77
2022-08-20T15:51:15.400Z,16.45
2022-08-20T15:56:34.410Z,18.88
2022-08-20T16:01:55.895Z,17.38
2022-08-20T16:07:13.165Z,18.00
2022-08-20T16:12:25.070Z,16.95
2022-08-20T16:17:37.456Z,17.15
2022-08-20T16:22:50.161Z,17.38
2022-08-20T16:33:55.430Z,14.57
2022-08-20T16:39:08.851Z,15.57
2022-08-20T16:44:22.789Z,15.15
2022-08-20T16:49:31.571Z,15.38
2022-08-20T16:54:45.989Z,14.90
2022-08-20T17:00:11.750Z,14.98
2022-08-20T17:05:17.461Z,12.75
2022-08-20T17:10:49.613Z,13.52
2022-08-20T17:16:03.528Z,17.40
2022-08-20T17:21:23.116Z,14.10
2022-08-20T17:26:37.005Z,15.77
2022-08-20T17:31:45.617Z,14.23
2022-08-20T17:37:13.491Z,17.05
2022-08-20T17:42:33.218Z,17.08
2022-08-20T17:47:53.757Z,16.33
2022-08-20T17:53:05.523Z,18.33
2022-08-20T17:58:23.668Z,18.15
2022-08-20T18:03:32.328Z,18.38
2022-08-20T18:08:46.554Z,21.02
2022-08-20T18:14:24.216Z,24.70
2022-08-20T18:19:54.761Z,23.70
2022-08-20T18:25:08.692Z,21.35
2022-08-20T18:30:26.284Z,22.42
2022-08-20T18:35:35.089Z,22.63
2022-08-20T18:40:48.621Z,27.95
2022-08-20T18:45:57.809Z,25.75
2022-08-20T18:51:25.439Z,23.92
2022-08-20T18:56:51.465Z,30.25
2022-08-20T19:02:12.741Z,32.15
2022-08-20T19:07:19.006Z,30.15
2022-08-20T19:12:58.695Z,26.13
2022-08-20T19:18:17.058Z,26.20
2022-08-20T19:23:39.006Z,34.78
2022-08-20T19:29:27.086Z,28.55
2022-08-20T19:35:00.130Z,32.72
2022-08-20T19:40:16.418Z,27.42
2022-08-20T19:51:21.782Z,31.85
2022-08-20T19:56:29.247Z,26.25
2022-08-20T20:01:41.656Z,27.20
2022-08-20T20:06:59.923Z,28.15
2022-08-20T20:12:24.588Z,27.52
2022-08-20T20:17:48.939Z,27.55
2022-08-20T20:23:21.197Z,29.95
2022-08-20T20:28:31.374Z,27.45
2022-08-20T20:33:44.352Z,28.98
2022-08-20T20:39:00.113Z,29.38
2022-08-20T20:44:07.623Z,30.90
2022-08-20T20:49:30.355Z,28.70
2022-08-20T20:54:54.608Z,30.83
2022-08-20T21:00:10.740Z,28.05
2022-08-20T21:05:27.911Z,28.55
2022-08-20T21:10:48.061Z,29.33
2022-08-20T21:16:01.837Z,27.33
2022-08-20T21:21:12.595Z,33.75
2022-08-20T21:26:19.909Z,32.67
2022-08-20T21:31:27.767Z,31.83
2022-08-20T21:36:44.821Z,31.83
2022-08-20T21:42:12.302Z,33.88
2022-08-20T21:47:35.898Z,37.40
2022-08-20T21:53:00.152Z,32.95
2022-08-20T21:58:18.594Z,31.33
2022-08-20T22:03:28.458Z,35.63
2022-08-20T22:08:35.784Z,33.88
2022-08-20T22:13:42.084Z,34.45
2022-08-20T22:18:48.739Z,31.83
2022-08-20T22:23:56.583Z,32.53
2022-08-20T22:29:10.214Z,36.53
2022-08-20T22:34:19.631Z,33.80
2022-08-20T22:39:28.420Z,35.80
2022-08-20T22:44:40.635Z,36.63
2022-08-20T22:49:49.545Z,33.65
2022-08-20T22:54:55.365Z,33.38
2022-08-20T23:00:04.606Z,30.52
2022-08-20T23:05:13.659Z,30.48
2022-08-20T23:16:05.454Z,30.10
2022-08-20T23:21:22.454Z,36.88
2022-08-20T23:26:52.527Z,34.33
2022-08-20T23:32:04.693Z,29.52
2022-08-20T23:37:11.625Z,31.55
2022-08-20T23:42:25.333Z,31.48
2022-08-20T23:47:48.966Z,30.08
2022-08-20T23:52:55.152Z,32.15
2022-08-20T23:58:14.263Z,32.03
